Cannon Ball, North Dakota
Current Conditions -  °F | °C
As of 8:55 AM on Thursday 27 Nov 2014 (Local Time) from K7L2 Reporting Station
Clear Clear  
Wind Chill: -28°   Ceiling: Unl
Heat Index: -18°   Visibility: 10mi
Dew Point: -20°   Wind: 14mph
Humidity: 85%   Direction: 140°SE
Pressure: 30.3"   Gusts: NA
Location:  46.4°N, 100.6°W
Report Text: K7L2 271555Z AUTO 14012KT 10SM CLR M18/M20 A3030 RMK AO2
Loading
Personal Weather Stations






























Interactive Weather Map New forecast layout! Learn more

10-Day Weather Forecast

Advertisements
Track Severe Weather on mobile